<?xml version="1.0" encoding="UTF-8" standalone="no" ?>
<gpx xmlns="http://www.topografix.com/GPX/1/1" xmlns:xsi="http://www.w3.org/2001/XMLSchema-instance" xsi:schemaLocation="http://www.topografix.com/GPX/1/1 http://www.topografix.com/GPX/1/1/gpx.xsd" version="1.1" creator="VisuGPX - https://www.visugpx.com">
  <metadata>
    <name>9267668-Duo nocturne 2019</name>
  </metadata>
  <trk>
    <name><![CDATA[9267668-Duo nocturne 2019]]></name>
    <trkseg>
      <trkpt lat="44.19058" lon="4.7029">
        <ele>47</ele>
        <time>2019-10-18T18:57:09Z</time>
      </trkpt>
      <trkpt lat="44.19055" lon="4.70323">
        <ele>44</ele>
        <time>2019-10-18T18:57:21Z</time>
      </trkpt>
      <trkpt lat="44.19053" lon="4.70371">
        <ele>41</ele>
        <time>2019-10-18T18:57:38Z</time>
      </trkpt>
      <trkpt lat="44.19055" lon="4.70411">
        <ele>38</ele>
        <time>2019-10-18T18:57:53Z</time>
      </trkpt>
      <trkpt lat="44.19067" lon="4.70406">
        <ele>39</ele>
        <time>2019-10-18T18:57:59Z</time>
      </trkpt>
      <trkpt lat="44.19087" lon="4.70394">
        <ele>39</ele>
        <time>2019-10-18T18:58:10Z</time>
      </trkpt>
      <trkpt lat="44.191" lon="4.7038">
        <ele>40</ele>
        <time>2019-10-18T18:58:18Z</time>
      </trkpt>
      <trkpt lat="44.19111" lon="4.70354">
        <ele>42</ele>
        <time>2019-10-18T18:58:29Z</time>
      </trkpt>
      <trkpt lat="44.19126" lon="4.70333">
        <ele>44</ele>
        <time>2019-10-18T18:58:39Z</time>
      </trkpt>
      <trkpt lat="44.19141" lon="4.70314">
        <ele>45</ele>
        <time>2019-10-18T18:58:50Z</time>
      </trkpt>
      <trkpt lat="44.1916" lon="4.70297">
        <ele>47</ele>
        <time>2019-10-18T18:59:01Z</time>
      </trkpt>
      <trkpt lat="44.19186" lon="4.70281">
        <ele>49</ele>
        <time>2019-10-18T18:59:15Z</time>
      </trkpt>
      <trkpt lat="44.19206" lon="4.70261">
        <ele>51</ele>
        <time>2019-10-18T18:59:27Z</time>
      </trkpt>
      <trkpt lat="44.19229" lon="4.70234">
        <ele>55</ele>
        <time>2019-10-18T18:59:42Z</time>
      </trkpt>
      <trkpt lat="44.19255" lon="4.70216">
        <ele>59</ele>
        <time>2019-10-18T18:59:57Z</time>
      </trkpt>
      <trkpt lat="44.19271" lon="4.702">
        <ele>61</ele>
        <time>2019-10-18T19:00:07Z</time>
      </trkpt>
      <trkpt lat="44.19283" lon="4.70181">
        <ele>65</ele>
        <time>2019-10-18T19:00:16Z</time>
      </trkpt>
      <trkpt lat="44.19309" lon="4.70152">
        <ele>69</ele>
        <time>2019-10-18T19:00:33Z</time>
      </trkpt>
      <trkpt lat="44.19321" lon="4.70137">
        <ele>71</ele>
        <time>2019-10-18T19:00:41Z</time>
      </trkpt>
      <trkpt lat="44.19328" lon="4.70095">
        <ele>75</ele>
        <time>2019-10-18T19:00:56Z</time>
      </trkpt>
      <trkpt lat="44.19294" lon="4.7002">
        <ele>78</ele>
        <time>2019-10-18T19:01:28Z</time>
      </trkpt>
      <trkpt lat="44.19279" lon="4.7001">
        <ele>79</ele>
        <time>2019-10-18T19:01:36Z</time>
      </trkpt>
      <trkpt lat="44.1926" lon="4.70011">
        <ele>79</ele>
        <time>2019-10-18T19:01:46Z</time>
      </trkpt>
      <trkpt lat="44.19241" lon="4.70003">
        <ele>78</ele>
        <time>2019-10-18T19:01:56Z</time>
      </trkpt>
      <trkpt lat="44.19221" lon="4.69973">
        <ele>78</ele>
        <time>2019-10-18T19:02:10Z</time>
      </trkpt>
      <trkpt lat="44.19204" lon="4.69956">
        <ele>77</ele>
        <time>2019-10-18T19:02:21Z</time>
      </trkpt>
      <trkpt lat="44.19184" lon="4.69934">
        <ele>77</ele>
        <time>2019-10-18T19:02:34Z</time>
      </trkpt>
      <trkpt lat="44.1917" lon="4.69916">
        <ele>76</ele>
        <time>2019-10-18T19:02:43Z</time>
      </trkpt>
      <trkpt lat="44.19149" lon="4.69899">
        <ele>77</ele>
        <time>2019-10-18T19:02:55Z</time>
      </trkpt>
      <trkpt lat="44.19129" lon="4.69899">
        <ele>77</ele>
        <time>2019-10-18T19:03:05Z</time>
      </trkpt>
      <trkpt lat="44.19109" lon="4.699">
        <ele>76</ele>
        <time>2019-10-18T19:03:15Z</time>
      </trkpt>
      <trkpt lat="44.19071" lon="4.69905">
        <ele>77</ele>
        <time>2019-10-18T19:03:34Z</time>
      </trkpt>
      <trkpt lat="44.19047" lon="4.69911">
        <ele>79</ele>
        <time>2019-10-18T19:03:47Z</time>
      </trkpt>
      <trkpt lat="44.19032" lon="4.69902">
        <ele>80</ele>
        <time>2019-10-18T19:03:55Z</time>
      </trkpt>
      <trkpt lat="44.19012" lon="4.69905">
        <ele>81</ele>
        <time>2019-10-18T19:04:05Z</time>
      </trkpt>
      <trkpt lat="44.18983" lon="4.6991">
        <ele>83</ele>
        <time>2019-10-18T19:04:19Z</time>
      </trkpt>
      <trkpt lat="44.18964" lon="4.69916">
        <ele>83</ele>
        <time>2019-10-18T19:04:29Z</time>
      </trkpt>
      <trkpt lat="44.18951" lon="4.6993">
        <ele>83</ele>
        <time>2019-10-18T19:04:37Z</time>
      </trkpt>
      <trkpt lat="44.1894" lon="4.69949">
        <ele>84</ele>
        <time>2019-10-18T19:04:46Z</time>
      </trkpt>
      <trkpt lat="44.18931" lon="4.69968">
        <ele>84</ele>
        <time>2019-10-18T19:04:54Z</time>
      </trkpt>
      <trkpt lat="44.18746" lon="4.70011">
        <ele>81</ele>
        <time>2019-10-18T19:06:28Z</time>
      </trkpt>
      <trkpt lat="44.18733" lon="4.70033">
        <ele>81</ele>
        <time>2019-10-18T19:06:38Z</time>
      </trkpt>
      <trkpt lat="44.18679" lon="4.70026">
        <ele>80</ele>
        <time>2019-10-18T19:07:06Z</time>
      </trkpt>
      <trkpt lat="44.18662" lon="4.70004">
        <ele>78</ele>
        <time>2019-10-18T19:07:17Z</time>
      </trkpt>
      <trkpt lat="44.18649" lon="4.6999">
        <ele>77</ele>
        <time>2019-10-18T19:07:25Z</time>
      </trkpt>
      <trkpt lat="44.18634" lon="4.69987">
        <ele>77</ele>
        <time>2019-10-18T19:07:33Z</time>
      </trkpt>
      <trkpt lat="44.18652" lon="4.70035">
        <ele>79</ele>
        <time>2019-10-18T19:07:52Z</time>
      </trkpt>
      <trkpt lat="44.18675" lon="4.70107">
        <ele>82</ele>
        <time>2019-10-18T19:08:21Z</time>
      </trkpt>
      <trkpt lat="44.18571" lon="4.70177">
        <ele>79</ele>
        <time>2019-10-18T19:09:19Z</time>
      </trkpt>
      <trkpt lat="44.18549" lon="4.70197">
        <ele>74</ele>
        <time>2019-10-18T19:09:32Z</time>
      </trkpt>
      <trkpt lat="44.18502" lon="4.70206">
        <ele>70</ele>
        <time>2019-10-18T19:09:55Z</time>
      </trkpt>
      <trkpt lat="44.18459" lon="4.70218">
        <ele>67</ele>
        <time>2019-10-18T19:10:17Z</time>
      </trkpt>
      <trkpt lat="44.18433" lon="4.70204">
        <ele>68</ele>
        <time>2019-10-18T19:10:31Z</time>
      </trkpt>
      <trkpt lat="44.18416" lon="4.7018">
        <ele>70</ele>
        <time>2019-10-18T19:10:43Z</time>
      </trkpt>
      <trkpt lat="44.18422" lon="4.70141">
        <ele>73</ele>
        <time>2019-10-18T19:10:58Z</time>
      </trkpt>
      <trkpt lat="44.18418" lon="4.70106">
        <ele>75</ele>
        <time>2019-10-18T19:11:10Z</time>
      </trkpt>
      <trkpt lat="44.18343" lon="4.70119">
        <ele>75</ele>
        <time>2019-10-18T19:11:48Z</time>
      </trkpt>
      <trkpt lat="44.18264" lon="4.70132">
        <ele>76</ele>
        <time>2019-10-18T19:12:28Z</time>
      </trkpt>
      <trkpt lat="44.18202" lon="4.70158">
        <ele>76</ele>
        <time>2019-10-18T19:13:00Z</time>
      </trkpt>
      <trkpt lat="44.18193" lon="4.70117">
        <ele>77</ele>
        <time>2019-10-18T19:13:16Z</time>
      </trkpt>
      <trkpt lat="44.18069" lon="4.70135">
        <ele>75</ele>
        <time>2019-10-18T19:14:18Z</time>
      </trkpt>
      <trkpt lat="44.18019" lon="4.69897">
        <ele>78</ele>
        <time>2019-10-18T19:15:47Z</time>
      </trkpt>
      <trkpt lat="44.18033" lon="4.69691">
        <ele>73</ele>
        <time>2019-10-18T19:17:02Z</time>
      </trkpt>
      <trkpt lat="44.17995" lon="4.69707">
        <ele>71</ele>
        <time>2019-10-18T19:17:21Z</time>
      </trkpt>
      <trkpt lat="44.17947" lon="4.69742">
        <ele>71</ele>
        <time>2019-10-18T19:17:48Z</time>
      </trkpt>
      <trkpt lat="44.17909" lon="4.69765">
        <ele>71</ele>
        <time>2019-10-18T19:18:09Z</time>
      </trkpt>
      <trkpt lat="44.1786" lon="4.69768">
        <ele>70</ele>
        <time>2019-10-18T19:18:34Z</time>
      </trkpt>
      <trkpt lat="44.17876" lon="4.69741">
        <ele>71</ele>
        <time>2019-10-18T19:18:46Z</time>
      </trkpt>
      <trkpt lat="44.17841" lon="4.69677">
        <ele>73</ele>
        <time>2019-10-18T19:19:15Z</time>
      </trkpt>
      <trkpt lat="44.17853" lon="4.69609">
        <ele>75</ele>
        <time>2019-10-18T19:19:40Z</time>
      </trkpt>
      <trkpt lat="44.17887" lon="4.69509">
        <ele>75</ele>
        <time>2019-10-18T19:20:20Z</time>
      </trkpt>
      <trkpt lat="44.17935" lon="4.69469">
        <ele>76</ele>
        <time>2019-10-18T19:20:48Z</time>
      </trkpt>
      <trkpt lat="44.17957" lon="4.69413">
        <ele>78</ele>
        <time>2019-10-18T19:21:11Z</time>
      </trkpt>
      <trkpt lat="44.17934" lon="4.69348">
        <ele>80</ele>
        <time>2019-10-18T19:21:37Z</time>
      </trkpt>
      <trkpt lat="44.17915" lon="4.69264">
        <ele>81</ele>
        <time>2019-10-18T19:22:09Z</time>
      </trkpt>
      <trkpt lat="44.1787" lon="4.692">
        <ele>85</ele>
        <time>2019-10-18T19:22:41Z</time>
      </trkpt>
      <trkpt lat="44.17864" lon="4.69187">
        <ele>86</ele>
        <time>2019-10-18T19:22:46Z</time>
      </trkpt>
      <trkpt lat="44.17854" lon="4.69181">
        <ele>87</ele>
        <time>2019-10-18T19:22:52Z</time>
      </trkpt>
      <trkpt lat="44.17839" lon="4.69174">
        <ele>88</ele>
        <time>2019-10-18T19:23:00Z</time>
      </trkpt>
      <trkpt lat="44.17813" lon="4.69166">
        <ele>90</ele>
        <time>2019-10-18T19:23:13Z</time>
      </trkpt>
      <trkpt lat="44.1779" lon="4.69166">
        <ele>92</ele>
        <time>2019-10-18T19:23:24Z</time>
      </trkpt>
      <trkpt lat="44.17757" lon="4.69163">
        <ele>94</ele>
        <time>2019-10-18T19:23:41Z</time>
      </trkpt>
      <trkpt lat="44.17747" lon="4.69157">
        <ele>94</ele>
        <time>2019-10-18T19:23:46Z</time>
      </trkpt>
      <trkpt lat="44.17731" lon="4.69121">
        <ele>95</ele>
        <time>2019-10-18T19:24:02Z</time>
      </trkpt>
      <trkpt lat="44.1772" lon="4.69104">
        <ele>95</ele>
        <time>2019-10-18T19:24:10Z</time>
      </trkpt>
      <trkpt lat="44.17677" lon="4.69079">
        <ele>97</ele>
        <time>2019-10-18T19:24:33Z</time>
      </trkpt>
      <trkpt lat="44.17675" lon="4.69051">
        <ele>98</ele>
        <time>2019-10-18T19:24:43Z</time>
      </trkpt>
      <trkpt lat="44.17674" lon="4.69017">
        <ele>100</ele>
        <time>2019-10-18T19:24:56Z</time>
      </trkpt>
      <trkpt lat="44.17667" lon="4.69006">
        <ele>101</ele>
        <time>2019-10-18T19:25:01Z</time>
      </trkpt>
      <trkpt lat="44.17659" lon="4.68988">
        <ele>102</ele>
        <time>2019-10-18T19:25:08Z</time>
      </trkpt>
      <trkpt lat="44.1769" lon="4.68964">
        <ele>102</ele>
        <time>2019-10-18T19:25:26Z</time>
      </trkpt>
      <trkpt lat="44.17712" lon="4.6894">
        <ele>102</ele>
        <time>2019-10-18T19:25:40Z</time>
      </trkpt>
      <trkpt lat="44.17703" lon="4.68911">
        <ele>105</ele>
        <time>2019-10-18T19:25:51Z</time>
      </trkpt>
      <trkpt lat="44.17714" lon="4.68859">
        <ele>106</ele>
        <time>2019-10-18T19:26:11Z</time>
      </trkpt>
      <trkpt lat="44.17716" lon="4.68827">
        <ele>107</ele>
        <time>2019-10-18T19:26:22Z</time>
      </trkpt>
      <trkpt lat="44.17702" lon="4.68798">
        <ele>110</ele>
        <time>2019-10-18T19:26:35Z</time>
      </trkpt>
      <trkpt lat="44.17699" lon="4.68765">
        <ele>113</ele>
        <time>2019-10-18T19:26:47Z</time>
      </trkpt>
      <trkpt lat="44.17707" lon="4.68736">
        <ele>114</ele>
        <time>2019-10-18T19:26:58Z</time>
      </trkpt>
      <trkpt lat="44.17693" lon="4.68683">
        <ele>121</ele>
        <time>2019-10-18T19:27:18Z</time>
      </trkpt>
      <trkpt lat="44.17691" lon="4.68666">
        <ele>123</ele>
        <time>2019-10-18T19:27:25Z</time>
      </trkpt>
      <trkpt lat="44.17686" lon="4.68651">
        <ele>124</ele>
        <time>2019-10-18T19:27:30Z</time>
      </trkpt>
      <trkpt lat="44.17683" lon="4.68632">
        <ele>126</ele>
        <time>2019-10-18T19:27:37Z</time>
      </trkpt>
      <trkpt lat="44.1769" lon="4.68617">
        <ele>127</ele>
        <time>2019-10-18T19:27:44Z</time>
      </trkpt>
      <trkpt lat="44.17673" lon="4.68583">
        <ele>129</ele>
        <time>2019-10-18T19:27:59Z</time>
      </trkpt>
      <trkpt lat="44.17676" lon="4.68547">
        <ele>130</ele>
        <time>2019-10-18T19:28:12Z</time>
      </trkpt>
      <trkpt lat="44.17663" lon="4.68504">
        <ele>131</ele>
        <time>2019-10-18T19:28:29Z</time>
      </trkpt>
      <trkpt lat="44.17663" lon="4.68478">
        <ele>132</ele>
        <time>2019-10-18T19:28:38Z</time>
      </trkpt>
      <trkpt lat="44.1766" lon="4.68445">
        <ele>133</ele>
        <time>2019-10-18T19:28:50Z</time>
      </trkpt>
      <trkpt lat="44.17666" lon="4.68416">
        <ele>133</ele>
        <time>2019-10-18T19:29:01Z</time>
      </trkpt>
      <trkpt lat="44.17709" lon="4.68376">
        <ele>134</ele>
        <time>2019-10-18T19:29:26Z</time>
      </trkpt>
      <trkpt lat="44.1774" lon="4.68335">
        <ele>137</ele>
        <time>2019-10-18T19:29:48Z</time>
      </trkpt>
      <trkpt lat="44.17776" lon="4.68304">
        <ele>143</ele>
        <time>2019-10-18T19:30:09Z</time>
      </trkpt>
      <trkpt lat="44.17816" lon="4.68291">
        <ele>145</ele>
        <time>2019-10-18T19:30:30Z</time>
      </trkpt>
      <trkpt lat="44.17857" lon="4.68292">
        <ele>145</ele>
        <time>2019-10-18T19:30:50Z</time>
      </trkpt>
      <trkpt lat="44.17893" lon="4.6828">
        <ele>147</ele>
        <time>2019-10-18T19:31:09Z</time>
      </trkpt>
      <trkpt lat="44.17925" lon="4.68261">
        <ele>148</ele>
        <time>2019-10-18T19:31:26Z</time>
      </trkpt>
      <trkpt lat="44.1795" lon="4.68246">
        <ele>148</ele>
        <time>2019-10-18T19:31:40Z</time>
      </trkpt>
      <trkpt lat="44.1797" lon="4.6821">
        <ele>147</ele>
        <time>2019-10-18T19:31:56Z</time>
      </trkpt>
      <trkpt lat="44.18003" lon="4.68199">
        <ele>143</ele>
        <time>2019-10-18T19:32:13Z</time>
      </trkpt>
      <trkpt lat="44.18036" lon="4.68175">
        <ele>140</ele>
        <time>2019-10-18T19:32:32Z</time>
      </trkpt>
      <trkpt lat="44.18056" lon="4.68133">
        <ele>136</ele>
        <time>2019-10-18T19:32:50Z</time>
      </trkpt>
      <trkpt lat="44.18074" lon="4.68104">
        <ele>131</ele>
        <time>2019-10-18T19:33:03Z</time>
      </trkpt>
      <trkpt lat="44.18092" lon="4.68065">
        <ele>128</ele>
        <time>2019-10-18T19:33:20Z</time>
      </trkpt>
      <trkpt lat="44.18062" lon="4.68054">
        <ele>133</ele>
        <time>2019-10-18T19:33:36Z</time>
      </trkpt>
      <trkpt lat="44.18039" lon="4.68036">
        <ele>137</ele>
        <time>2019-10-18T19:33:49Z</time>
      </trkpt>
      <trkpt lat="44.18012" lon="4.68023">
        <ele>142</ele>
        <time>2019-10-18T19:34:03Z</time>
      </trkpt>
      <trkpt lat="44.17976" lon="4.67996">
        <ele>148</ele>
        <time>2019-10-18T19:34:24Z</time>
      </trkpt>
      <trkpt lat="44.17953" lon="4.67969">
        <ele>153</ele>
        <time>2019-10-18T19:34:39Z</time>
      </trkpt>
      <trkpt lat="44.17926" lon="4.67945">
        <ele>158</ele>
        <time>2019-10-18T19:34:55Z</time>
      </trkpt>
      <trkpt lat="44.17871" lon="4.67884">
        <ele>160</ele>
        <time>2019-10-18T19:35:30Z</time>
      </trkpt>
      <trkpt lat="44.1786" lon="4.67869">
        <ele>158</ele>
        <time>2019-10-18T19:35:38Z</time>
      </trkpt>
      <trkpt lat="44.17834" lon="4.67852">
        <ele>156</ele>
        <time>2019-10-18T19:35:52Z</time>
      </trkpt>
      <trkpt lat="44.17797" lon="4.6784">
        <ele>157</ele>
        <time>2019-10-18T19:36:11Z</time>
      </trkpt>
      <trkpt lat="44.17762" lon="4.67837">
        <ele>160</ele>
        <time>2019-10-18T19:36:28Z</time>
      </trkpt>
      <trkpt lat="44.17728" lon="4.67835">
        <ele>163</ele>
        <time>2019-10-18T19:36:45Z</time>
      </trkpt>
      <trkpt lat="44.17701" lon="4.67832">
        <ele>165</ele>
        <time>2019-10-18T19:36:59Z</time>
      </trkpt>
      <trkpt lat="44.1766" lon="4.67815">
        <ele>168</ele>
        <time>2019-10-18T19:37:20Z</time>
      </trkpt>
      <trkpt lat="44.17586" lon="4.678">
        <ele>174</ele>
        <time>2019-10-18T19:37:58Z</time>
      </trkpt>
      <trkpt lat="44.17597" lon="4.67828">
        <ele>176</ele>
        <time>2019-10-18T19:38:09Z</time>
      </trkpt>
      <trkpt lat="44.17603" lon="4.67865">
        <ele>178</ele>
        <time>2019-10-18T19:38:23Z</time>
      </trkpt>
      <trkpt lat="44.17626" lon="4.67898">
        <ele>177</ele>
        <time>2019-10-18T19:38:39Z</time>
      </trkpt>
      <trkpt lat="44.17647" lon="4.67943">
        <ele>175</ele>
        <time>2019-10-18T19:38:59Z</time>
      </trkpt>
      <trkpt lat="44.17658" lon="4.68">
        <ele>170</ele>
        <time>2019-10-18T19:39:20Z</time>
      </trkpt>
      <trkpt lat="44.17661" lon="4.68058">
        <ele>166</ele>
        <time>2019-10-18T19:39:41Z</time>
      </trkpt>
      <trkpt lat="44.17678" lon="4.68077">
        <ele>166</ele>
        <time>2019-10-18T19:39:52Z</time>
      </trkpt>
      <trkpt lat="44.17683" lon="4.68108">
        <ele>165</ele>
        <time>2019-10-18T19:40:03Z</time>
      </trkpt>
      <trkpt lat="44.17679" lon="4.68182">
        <ele>160</ele>
        <time>2019-10-18T19:40:30Z</time>
      </trkpt>
      <trkpt lat="44.17673" lon="4.68191">
        <ele>158</ele>
        <time>2019-10-18T19:40:34Z</time>
      </trkpt>
      <trkpt lat="44.17656" lon="4.68243">
        <ele>153</ele>
        <time>2019-10-18T19:40:55Z</time>
      </trkpt>
      <trkpt lat="44.1763" lon="4.68342">
        <ele>142</ele>
        <time>2019-10-18T19:41:32Z</time>
      </trkpt>
      <trkpt lat="44.17625" lon="4.68418">
        <ele>136</ele>
        <time>2019-10-18T19:42:00Z</time>
      </trkpt>
      <trkpt lat="44.17627" lon="4.68442">
        <ele>135</ele>
        <time>2019-10-18T19:42:09Z</time>
      </trkpt>
      <trkpt lat="44.17638" lon="4.6854">
        <ele>131</ele>
        <time>2019-10-18T19:42:44Z</time>
      </trkpt>
      <trkpt lat="44.17626" lon="4.68597">
        <ele>130</ele>
        <time>2019-10-18T19:43:05Z</time>
      </trkpt>
      <trkpt lat="44.17613" lon="4.68656">
        <ele>126</ele>
        <time>2019-10-18T19:43:28Z</time>
      </trkpt>
      <trkpt lat="44.17581" lon="4.6875">
        <ele>119</ele>
        <time>2019-10-18T19:44:05Z</time>
      </trkpt>
      <trkpt lat="44.17568" lon="4.68799">
        <ele>116</ele>
        <time>2019-10-18T19:44:24Z</time>
      </trkpt>
      <trkpt lat="44.17556" lon="4.68833">
        <ele>112</ele>
        <time>2019-10-18T19:44:37Z</time>
      </trkpt>
      <trkpt lat="44.1753" lon="4.6886">
        <ele>109</ele>
        <time>2019-10-18T19:44:54Z</time>
      </trkpt>
      <trkpt lat="44.17517" lon="4.68878">
        <ele>107</ele>
        <time>2019-10-18T19:45:03Z</time>
      </trkpt>
      <trkpt lat="44.17543" lon="4.6892">
        <ele>105</ele>
        <time>2019-10-18T19:45:23Z</time>
      </trkpt>
      <trkpt lat="44.17543" lon="4.68982">
        <ele>104</ele>
        <time>2019-10-18T19:45:45Z</time>
      </trkpt>
      <trkpt lat="44.17554" lon="4.69016">
        <ele>103</ele>
        <time>2019-10-18T19:45:58Z</time>
      </trkpt>
      <trkpt lat="44.17582" lon="4.69036">
        <ele>101</ele>
        <time>2019-10-18T19:46:14Z</time>
      </trkpt>
      <trkpt lat="44.17619" lon="4.69081">
        <ele>98</ele>
        <time>2019-10-18T19:46:39Z</time>
      </trkpt>
      <trkpt lat="44.17662" lon="4.69116">
        <ele>96</ele>
        <time>2019-10-18T19:47:03Z</time>
      </trkpt>
      <trkpt lat="44.17671" lon="4.69133">
        <ele>96</ele>
        <time>2019-10-18T19:47:11Z</time>
      </trkpt>
      <trkpt lat="44.17672" lon="4.69165">
        <ele>95</ele>
        <time>2019-10-18T19:47:23Z</time>
      </trkpt>
      <trkpt lat="44.17683" lon="4.69192">
        <ele>95</ele>
        <time>2019-10-18T19:47:34Z</time>
      </trkpt>
      <trkpt lat="44.17699" lon="4.69232">
        <ele>94</ele>
        <time>2019-10-18T19:47:50Z</time>
      </trkpt>
      <trkpt lat="44.17713" lon="4.69266">
        <ele>92</ele>
        <time>2019-10-18T19:48:04Z</time>
      </trkpt>
      <trkpt lat="44.17727" lon="4.69303">
        <ele>89</ele>
        <time>2019-10-18T19:48:19Z</time>
      </trkpt>
      <trkpt lat="44.17722" lon="4.69311">
        <ele>89</ele>
        <time>2019-10-18T19:48:23Z</time>
      </trkpt>
      <trkpt lat="44.17712" lon="4.69327">
        <ele>89</ele>
        <time>2019-10-18T19:48:31Z</time>
      </trkpt>
      <trkpt lat="44.17696" lon="4.69327">
        <ele>91</ele>
        <time>2019-10-18T19:48:39Z</time>
      </trkpt>
      <trkpt lat="44.17672" lon="4.69307">
        <ele>94</ele>
        <time>2019-10-18T19:48:53Z</time>
      </trkpt>
      <trkpt lat="44.17657" lon="4.69279">
        <ele>97</ele>
        <time>2019-10-18T19:49:05Z</time>
      </trkpt>
      <trkpt lat="44.17646" lon="4.6925">
        <ele>100</ele>
        <time>2019-10-18T19:49:17Z</time>
      </trkpt>
      <trkpt lat="44.17629" lon="4.6926">
        <ele>102</ele>
        <time>2019-10-18T19:49:26Z</time>
      </trkpt>
      <trkpt lat="44.17614" lon="4.69267">
        <ele>103</ele>
        <time>2019-10-18T19:49:34Z</time>
      </trkpt>
      <trkpt lat="44.17577" lon="4.69242">
        <ele>109</ele>
        <time>2019-10-18T19:49:55Z</time>
      </trkpt>
      <trkpt lat="44.17566" lon="4.69236">
        <ele>110</ele>
        <time>2019-10-18T19:50:01Z</time>
      </trkpt>
      <trkpt lat="44.17562" lon="4.69195">
        <ele>109</ele>
        <time>2019-10-18T19:50:15Z</time>
      </trkpt>
      <trkpt lat="44.17548" lon="4.69204">
        <ele>111</ele>
        <time>2019-10-18T19:50:23Z</time>
      </trkpt>
      <trkpt lat="44.17529" lon="4.69225">
        <ele>113</ele>
        <time>2019-10-18T19:50:35Z</time>
      </trkpt>
      <trkpt lat="44.17477" lon="4.6922">
        <ele>118</ele>
        <time>2019-10-18T19:51:01Z</time>
      </trkpt>
      <trkpt lat="44.17438" lon="4.69195">
        <ele>124</ele>
        <time>2019-10-18T19:51:23Z</time>
      </trkpt>
      <trkpt lat="44.17396" lon="4.69184">
        <ele>129</ele>
        <time>2019-10-18T19:51:44Z</time>
      </trkpt>
      <trkpt lat="44.17371" lon="4.6917">
        <ele>134</ele>
        <time>2019-10-18T19:51:58Z</time>
      </trkpt>
      <trkpt lat="44.17358" lon="4.69158">
        <ele>136</ele>
        <time>2019-10-18T19:52:06Z</time>
      </trkpt>
      <trkpt lat="44.17352" lon="4.69139">
        <ele>136</ele>
        <time>2019-10-18T19:52:13Z</time>
      </trkpt>
      <trkpt lat="44.17338" lon="4.69127">
        <ele>137</ele>
        <time>2019-10-18T19:52:21Z</time>
      </trkpt>
      <trkpt lat="44.17323" lon="4.69127">
        <ele>138</ele>
        <time>2019-10-18T19:52:29Z</time>
      </trkpt>
      <trkpt lat="44.17308" lon="4.69112">
        <ele>139</ele>
        <time>2019-10-18T19:52:38Z</time>
      </trkpt>
      <trkpt lat="44.17287" lon="4.69111">
        <ele>141</ele>
        <time>2019-10-18T19:52:48Z</time>
      </trkpt>
      <trkpt lat="44.17272" lon="4.69104">
        <ele>142</ele>
        <time>2019-10-18T19:52:56Z</time>
      </trkpt>
      <trkpt lat="44.17252" lon="4.69111">
        <ele>143</ele>
        <time>2019-10-18T19:53:07Z</time>
      </trkpt>
      <trkpt lat="44.17232" lon="4.69113">
        <ele>141</ele>
        <time>2019-10-18T19:53:17Z</time>
      </trkpt>
      <trkpt lat="44.17236" lon="4.69122">
        <ele>142</ele>
        <time>2019-10-18T19:53:21Z</time>
      </trkpt>
      <trkpt lat="44.17267" lon="4.69121">
        <ele>142</ele>
        <time>2019-10-18T19:53:36Z</time>
      </trkpt>
      <trkpt lat="44.173" lon="4.69132">
        <ele>140</ele>
        <time>2019-10-18T19:53:53Z</time>
      </trkpt>
      <trkpt lat="44.17327" lon="4.69141">
        <ele>138</ele>
        <time>2019-10-18T19:54:07Z</time>
      </trkpt>
      <trkpt lat="44.17287" lon="4.69145">
        <ele>141</ele>
        <time>2019-10-18T19:54:27Z</time>
      </trkpt>
      <trkpt lat="44.17259" lon="4.69145">
        <ele>142</ele>
        <time>2019-10-18T19:54:41Z</time>
      </trkpt>
      <trkpt lat="44.17239" lon="4.69144">
        <ele>142</ele>
        <time>2019-10-18T19:54:51Z</time>
      </trkpt>
      <trkpt lat="44.17226" lon="4.69141">
        <ele>140</ele>
        <time>2019-10-18T19:54:58Z</time>
      </trkpt>
      <trkpt lat="44.17208" lon="4.69143">
        <ele>139</ele>
        <time>2019-10-18T19:55:07Z</time>
      </trkpt>
      <trkpt lat="44.17211" lon="4.69158">
        <ele>139</ele>
        <time>2019-10-18T19:55:12Z</time>
      </trkpt>
      <trkpt lat="44.17245" lon="4.69159">
        <ele>142</ele>
        <time>2019-10-18T19:55:29Z</time>
      </trkpt>
      <trkpt lat="44.17248" lon="4.69177">
        <ele>140</ele>
        <time>2019-10-18T19:55:36Z</time>
      </trkpt>
      <trkpt lat="44.17254" lon="4.69202">
        <ele>136</ele>
        <time>2019-10-18T19:55:45Z</time>
      </trkpt>
      <trkpt lat="44.17259" lon="4.69238">
        <ele>131</ele>
        <time>2019-10-18T19:55:59Z</time>
      </trkpt>
      <trkpt lat="44.17272" lon="4.69266">
        <ele>127</ele>
        <time>2019-10-18T19:56:10Z</time>
      </trkpt>
      <trkpt lat="44.17276" lon="4.6929">
        <ele>124</ele>
        <time>2019-10-18T19:56:19Z</time>
      </trkpt>
      <trkpt lat="44.17286" lon="4.69313">
        <ele>121</ele>
        <time>2019-10-18T19:56:29Z</time>
      </trkpt>
      <trkpt lat="44.17286" lon="4.69327">
        <ele>119</ele>
        <time>2019-10-18T19:56:34Z</time>
      </trkpt>
      <trkpt lat="44.17284" lon="4.6935">
        <ele>117</ele>
        <time>2019-10-18T19:56:42Z</time>
      </trkpt>
      <trkpt lat="44.1728" lon="4.69393">
        <ele>115</ele>
        <time>2019-10-18T19:56:58Z</time>
      </trkpt>
      <trkpt lat="44.1728" lon="4.69415">
        <ele>114</ele>
        <time>2019-10-18T19:57:06Z</time>
      </trkpt>
      <trkpt lat="44.17274" lon="4.69436">
        <ele>112</ele>
        <time>2019-10-18T19:57:14Z</time>
      </trkpt>
      <trkpt lat="44.17262" lon="4.69456">
        <ele>111</ele>
        <time>2019-10-18T19:57:23Z</time>
      </trkpt>
      <trkpt lat="44.17246" lon="4.6947">
        <ele>111</ele>
        <time>2019-10-18T19:57:33Z</time>
      </trkpt>
      <trkpt lat="44.17228" lon="4.69471">
        <ele>110</ele>
        <time>2019-10-18T19:57:42Z</time>
      </trkpt>
      <trkpt lat="44.17209" lon="4.6947">
        <ele>109</ele>
        <time>2019-10-18T19:57:51Z</time>
      </trkpt>
      <trkpt lat="44.17195" lon="4.69476">
        <ele>107</ele>
        <time>2019-10-18T19:57:59Z</time>
      </trkpt>
      <trkpt lat="44.17193" lon="4.69488">
        <ele>107</ele>
        <time>2019-10-18T19:58:03Z</time>
      </trkpt>
      <trkpt lat="44.17195" lon="4.69501">
        <ele>106</ele>
        <time>2019-10-18T19:58:08Z</time>
      </trkpt>
      <trkpt lat="44.17199" lon="4.69522">
        <ele>105</ele>
        <time>2019-10-18T19:58:16Z</time>
      </trkpt>
      <trkpt lat="44.172" lon="4.69539">
        <ele>103</ele>
        <time>2019-10-18T19:58:22Z</time>
      </trkpt>
      <trkpt lat="44.17203" lon="4.69564">
        <ele>102</ele>
        <time>2019-10-18T19:58:31Z</time>
      </trkpt>
      <trkpt lat="44.17233" lon="4.69558">
        <ele>104</ele>
        <time>2019-10-18T19:58:46Z</time>
      </trkpt>
      <trkpt lat="44.17262" lon="4.69557">
        <ele>104</ele>
        <time>2019-10-18T19:59:00Z</time>
      </trkpt>
      <trkpt lat="44.17271" lon="4.69546">
        <ele>104</ele>
        <time>2019-10-18T19:59:06Z</time>
      </trkpt>
      <trkpt lat="44.17296" lon="4.69563">
        <ele>101</ele>
        <time>2019-10-18T19:59:20Z</time>
      </trkpt>
      <trkpt lat="44.17329" lon="4.69564">
        <ele>99</ele>
        <time>2019-10-18T19:59:37Z</time>
      </trkpt>
      <trkpt lat="44.17362" lon="4.6957">
        <ele>96</ele>
        <time>2019-10-18T19:59:54Z</time>
      </trkpt>
      <trkpt lat="44.17402" lon="4.69587">
        <ele>92</ele>
        <time>2019-10-18T20:00:14Z</time>
      </trkpt>
      <trkpt lat="44.1748" lon="4.6964">
        <ele>84</ele>
        <time>2019-10-18T20:00:58Z</time>
      </trkpt>
      <trkpt lat="44.17476" lon="4.69693">
        <ele>83</ele>
        <time>2019-10-18T20:01:17Z</time>
      </trkpt>
      <trkpt lat="44.17471" lon="4.69726">
        <ele>82</ele>
        <time>2019-10-18T20:01:29Z</time>
      </trkpt>
      <trkpt lat="44.17466" lon="4.69739">
        <ele>82</ele>
        <time>2019-10-18T20:01:34Z</time>
      </trkpt>
      <trkpt lat="44.17459" lon="4.69757">
        <ele>82</ele>
        <time>2019-10-18T20:01:42Z</time>
      </trkpt>
      <trkpt lat="44.17459" lon="4.69791">
        <ele>81</ele>
        <time>2019-10-18T20:01:54Z</time>
      </trkpt>
      <trkpt lat="44.17473" lon="4.69833">
        <ele>79</ele>
        <time>2019-10-18T20:02:11Z</time>
      </trkpt>
      <trkpt lat="44.17486" lon="4.69864">
        <ele>77</ele>
        <time>2019-10-18T20:02:23Z</time>
      </trkpt>
      <trkpt lat="44.1748" lon="4.69914">
        <ele>75</ele>
        <time>2019-10-18T20:02:42Z</time>
      </trkpt>
      <trkpt lat="44.17485" lon="4.69972">
        <ele>74</ele>
        <time>2019-10-18T20:03:03Z</time>
      </trkpt>
      <trkpt lat="44.17483" lon="4.69997">
        <ele>73</ele>
        <time>2019-10-18T20:03:12Z</time>
      </trkpt>
      <trkpt lat="44.17471" lon="4.70007">
        <ele>73</ele>
        <time>2019-10-18T20:03:19Z</time>
      </trkpt>
      <trkpt lat="44.17442" lon="4.69997">
        <ele>74</ele>
        <time>2019-10-18T20:03:34Z</time>
      </trkpt>
      <trkpt lat="44.17426" lon="4.69976">
        <ele>75</ele>
        <time>2019-10-18T20:03:45Z</time>
      </trkpt>
      <trkpt lat="44.17391" lon="4.69911">
        <ele>79</ele>
        <time>2019-10-18T20:04:14Z</time>
      </trkpt>
      <trkpt lat="44.17352" lon="4.69904">
        <ele>82</ele>
        <time>2019-10-18T20:04:33Z</time>
      </trkpt>
      <trkpt lat="44.17297" lon="4.6989">
        <ele>87</ele>
        <time>2019-10-18T20:05:01Z</time>
      </trkpt>
      <trkpt lat="44.17256" lon="4.69879">
        <ele>91</ele>
        <time>2019-10-18T20:05:22Z</time>
      </trkpt>
      <trkpt lat="44.1723" lon="4.69867">
        <ele>93</ele>
        <time>2019-10-18T20:05:36Z</time>
      </trkpt>
      <trkpt lat="44.17216" lon="4.69866">
        <ele>94</ele>
        <time>2019-10-18T20:05:43Z</time>
      </trkpt>
      <trkpt lat="44.17208" lon="4.69856">
        <ele>95</ele>
        <time>2019-10-18T20:05:48Z</time>
      </trkpt>
      <trkpt lat="44.17199" lon="4.69875">
        <ele>93</ele>
        <time>2019-10-18T20:05:57Z</time>
      </trkpt>
      <trkpt lat="44.17202" lon="4.69884">
        <ele>92</ele>
        <time>2019-10-18T20:06:00Z</time>
      </trkpt>
      <trkpt lat="44.1716" lon="4.69909">
        <ele>90</ele>
        <time>2019-10-18T20:06:23Z</time>
      </trkpt>
      <trkpt lat="44.17188" lon="4.69947">
        <ele>86</ele>
        <time>2019-10-18T20:06:43Z</time>
      </trkpt>
      <trkpt lat="44.17219" lon="4.69968">
        <ele>83</ele>
        <time>2019-10-18T20:07:00Z</time>
      </trkpt>
      <trkpt lat="44.17244" lon="4.69998">
        <ele>80</ele>
        <time>2019-10-18T20:07:16Z</time>
      </trkpt>
      <trkpt lat="44.17277" lon="4.70032">
        <ele>77</ele>
        <time>2019-10-18T20:07:37Z</time>
      </trkpt>
      <trkpt lat="44.17299" lon="4.70061">
        <ele>76</ele>
        <time>2019-10-18T20:07:52Z</time>
      </trkpt>
      <trkpt lat="44.17313" lon="4.7009">
        <ele>75</ele>
        <time>2019-10-18T20:08:05Z</time>
      </trkpt>
      <trkpt lat="44.17329" lon="4.70112">
        <ele>77</ele>
        <time>2019-10-18T20:08:16Z</time>
      </trkpt>
      <trkpt lat="44.17344" lon="4.70117">
        <ele>76</ele>
        <time>2019-10-18T20:08:24Z</time>
      </trkpt>
      <trkpt lat="44.17357" lon="4.7013">
        <ele>76</ele>
        <time>2019-10-18T20:08:32Z</time>
      </trkpt>
      <trkpt lat="44.17353" lon="4.70145">
        <ele>76</ele>
        <time>2019-10-18T20:08:37Z</time>
      </trkpt>
      <trkpt lat="44.17392" lon="4.70148">
        <ele>76</ele>
        <time>2019-10-18T20:08:57Z</time>
      </trkpt>
      <trkpt lat="44.17419" lon="4.70163">
        <ele>76</ele>
        <time>2019-10-18T20:09:11Z</time>
      </trkpt>
      <trkpt lat="44.17405" lon="4.70205">
        <ele>77</ele>
        <time>2019-10-18T20:09:28Z</time>
      </trkpt>
      <trkpt lat="44.17418" lon="4.70225">
        <ele>77</ele>
        <time>2019-10-18T20:09:38Z</time>
      </trkpt>
      <trkpt lat="44.17428" lon="4.70247">
        <ele>76</ele>
        <time>2019-10-18T20:09:47Z</time>
      </trkpt>
      <trkpt lat="44.17476" lon="4.70271">
        <ele>73</ele>
        <time>2019-10-18T20:10:13Z</time>
      </trkpt>
      <trkpt lat="44.17486" lon="4.70289">
        <ele>72</ele>
        <time>2019-10-18T20:10:21Z</time>
      </trkpt>
      <trkpt lat="44.17514" lon="4.7031">
        <ele>69</ele>
        <time>2019-10-18T20:10:37Z</time>
      </trkpt>
      <trkpt lat="44.17542" lon="4.70351">
        <ele>67</ele>
        <time>2019-10-18T20:10:57Z</time>
      </trkpt>
      <trkpt lat="44.17533" lon="4.70373">
        <ele>67</ele>
        <time>2019-10-18T20:11:06Z</time>
      </trkpt>
      <trkpt lat="44.1756" lon="4.70384">
        <ele>66</ele>
        <time>2019-10-18T20:11:20Z</time>
      </trkpt>
      <trkpt lat="44.17581" lon="4.70388">
        <ele>64</ele>
        <time>2019-10-18T20:11:31Z</time>
      </trkpt>
      <trkpt lat="44.17572" lon="4.7041">
        <ele>65</ele>
        <time>2019-10-18T20:11:40Z</time>
      </trkpt>
      <trkpt lat="44.17559" lon="4.70422">
        <ele>65</ele>
        <time>2019-10-18T20:11:48Z</time>
      </trkpt>
      <trkpt lat="44.17532" lon="4.70442">
        <ele>66</ele>
        <time>2019-10-18T20:12:03Z</time>
      </trkpt>
      <trkpt lat="44.17517" lon="4.7046">
        <ele>67</ele>
        <time>2019-10-18T20:12:13Z</time>
      </trkpt>
      <trkpt lat="44.17523" lon="4.70494">
        <ele>66</ele>
        <time>2019-10-18T20:12:25Z</time>
      </trkpt>
      <trkpt lat="44.17524" lon="4.70544">
        <ele>60</ele>
        <time>2019-10-18T20:12:43Z</time>
      </trkpt>
      <trkpt lat="44.17586" lon="4.70536">
        <ele>58</ele>
        <time>2019-10-18T20:13:14Z</time>
      </trkpt>
      <trkpt lat="44.17649" lon="4.70527">
        <ele>57</ele>
        <time>2019-10-18T20:13:46Z</time>
      </trkpt>
      <trkpt lat="44.17661" lon="4.70509">
        <ele>58</ele>
        <time>2019-10-18T20:13:55Z</time>
      </trkpt>
      <trkpt lat="44.17683" lon="4.70493">
        <ele>60</ele>
        <time>2019-10-18T20:14:07Z</time>
      </trkpt>
      <trkpt lat="44.17705" lon="4.70486">
        <ele>62</ele>
        <time>2019-10-18T20:14:19Z</time>
      </trkpt>
      <trkpt lat="44.17743" lon="4.70432">
        <ele>65</ele>
        <time>2019-10-18T20:14:46Z</time>
      </trkpt>
      <trkpt lat="44.17735" lon="4.70469">
        <ele>64</ele>
        <time>2019-10-18T20:15:00Z</time>
      </trkpt>
      <trkpt lat="44.17736" lon="4.70505">
        <ele>63</ele>
        <time>2019-10-18T20:15:13Z</time>
      </trkpt>
      <trkpt lat="44.17752" lon="4.70543">
        <ele>59</ele>
        <time>2019-10-18T20:15:28Z</time>
      </trkpt>
      <trkpt lat="44.17774" lon="4.70558">
        <ele>58</ele>
        <time>2019-10-18T20:15:41Z</time>
      </trkpt>
      <trkpt lat="44.17793" lon="4.70577">
        <ele>57</ele>
        <time>2019-10-18T20:15:52Z</time>
      </trkpt>
      <trkpt lat="44.17815" lon="4.70611">
        <ele>52</ele>
        <time>2019-10-18T20:16:09Z</time>
      </trkpt>
      <trkpt lat="44.17826" lon="4.70633">
        <ele>49</ele>
        <time>2019-10-18T20:16:18Z</time>
      </trkpt>
      <trkpt lat="44.17826" lon="4.70692">
        <ele>43</ele>
        <time>2019-10-18T20:16:40Z</time>
      </trkpt>
      <trkpt lat="44.1783" lon="4.70747">
        <ele>42</ele>
        <time>2019-10-18T20:17:00Z</time>
      </trkpt>
      <trkpt lat="44.17852" lon="4.70731">
        <ele>42</ele>
        <time>2019-10-18T20:17:12Z</time>
      </trkpt>
      <trkpt lat="44.17882" lon="4.70717">
        <ele>41</ele>
        <time>2019-10-18T20:17:28Z</time>
      </trkpt>
      <trkpt lat="44.17894" lon="4.70692">
        <ele>41</ele>
        <time>2019-10-18T20:17:39Z</time>
      </trkpt>
      <trkpt lat="44.17918" lon="4.70671">
        <ele>41</ele>
        <time>2019-10-18T20:17:53Z</time>
      </trkpt>
      <trkpt lat="44.17934" lon="4.70635">
        <ele>43</ele>
        <time>2019-10-18T20:18:08Z</time>
      </trkpt>
      <trkpt lat="44.17955" lon="4.70617">
        <ele>43</ele>
        <time>2019-10-18T20:18:20Z</time>
      </trkpt>
      <trkpt lat="44.17983" lon="4.70626">
        <ele>41</ele>
        <time>2019-10-18T20:18:35Z</time>
      </trkpt>
      <trkpt lat="44.1802" lon="4.70629">
        <ele>39</ele>
        <time>2019-10-18T20:18:53Z</time>
      </trkpt>
      <trkpt lat="44.18078" lon="4.7063">
        <ele>36</ele>
        <time>2019-10-18T20:19:22Z</time>
      </trkpt>
      <trkpt lat="44.18109" lon="4.70629">
        <ele>36</ele>
        <time>2019-10-18T20:19:38Z</time>
      </trkpt>
      <trkpt lat="44.1814" lon="4.70626">
        <ele>36</ele>
        <time>2019-10-18T20:19:53Z</time>
      </trkpt>
      <trkpt lat="44.18227" lon="4.70632">
        <ele>37</ele>
        <time>2019-10-18T20:20:37Z</time>
      </trkpt>
      <trkpt lat="44.18267" lon="4.70628">
        <ele>38</ele>
        <time>2019-10-18T20:20:57Z</time>
      </trkpt>
      <trkpt lat="44.18306" lon="4.70616">
        <ele>38</ele>
        <time>2019-10-18T20:21:17Z</time>
      </trkpt>
      <trkpt lat="44.18353" lon="4.70611">
        <ele>38</ele>
        <time>2019-10-18T20:21:41Z</time>
      </trkpt>
      <trkpt lat="44.18403" lon="4.706">
        <ele>38</ele>
        <time>2019-10-18T20:22:06Z</time>
      </trkpt>
      <trkpt lat="44.18454" lon="4.70587">
        <ele>38</ele>
        <time>2019-10-18T20:22:32Z</time>
      </trkpt>
      <trkpt lat="44.18515" lon="4.70584">
        <ele>38</ele>
        <time>2019-10-18T20:23:02Z</time>
      </trkpt>
      <trkpt lat="44.18564" lon="4.70587">
        <ele>39</ele>
        <time>2019-10-18T20:23:27Z</time>
      </trkpt>
      <trkpt lat="44.18593" lon="4.70588">
        <ele>39</ele>
        <time>2019-10-18T20:23:41Z</time>
      </trkpt>
      <trkpt lat="44.18588" lon="4.70609">
        <ele>39</ele>
        <time>2019-10-18T20:23:49Z</time>
      </trkpt>
      <trkpt lat="44.18589" lon="4.70648">
        <ele>40</ele>
        <time>2019-10-18T20:24:03Z</time>
      </trkpt>
      <trkpt lat="44.1859" lon="4.70689">
        <ele>40</ele>
        <time>2019-10-18T20:24:18Z</time>
      </trkpt>
      <trkpt lat="44.1862" lon="4.70675">
        <ele>41</ele>
        <time>2019-10-18T20:24:34Z</time>
      </trkpt>
      <trkpt lat="44.1865" lon="4.70668">
        <ele>42</ele>
        <time>2019-10-18T20:24:49Z</time>
      </trkpt>
      <trkpt lat="44.18677" lon="4.70657">
        <ele>42</ele>
        <time>2019-10-18T20:25:03Z</time>
      </trkpt>
      <trkpt lat="44.1869" lon="4.70629">
        <ele>41</ele>
        <time>2019-10-18T20:25:15Z</time>
      </trkpt>
      <trkpt lat="44.1868" lon="4.7062">
        <ele>42</ele>
        <time>2019-10-18T20:25:21Z</time>
      </trkpt>
      <trkpt lat="44.18668" lon="4.70612">
        <ele>42</ele>
        <time>2019-10-18T20:25:28Z</time>
      </trkpt>
      <trkpt lat="44.18651" lon="4.70605">
        <ele>41</ele>
        <time>2019-10-18T20:25:37Z</time>
      </trkpt>
      <trkpt lat="44.18658" lon="4.70575">
        <ele>41</ele>
        <time>2019-10-18T20:25:48Z</time>
      </trkpt>
      <trkpt lat="44.18657" lon="4.70548">
        <ele>40</ele>
        <time>2019-10-18T20:25:58Z</time>
      </trkpt>
      <trkpt lat="44.1869" lon="4.70539">
        <ele>40</ele>
        <time>2019-10-18T20:26:15Z</time>
      </trkpt>
      <trkpt lat="44.18749" lon="4.70535">
        <ele>39</ele>
        <time>2019-10-18T20:26:44Z</time>
      </trkpt>
      <trkpt lat="44.18746" lon="4.70453">
        <ele>38</ele>
        <time>2019-10-18T20:27:14Z</time>
      </trkpt>
      <trkpt lat="44.18743" lon="4.70364">
        <ele>41</ele>
        <time>2019-10-18T20:27:45Z</time>
      </trkpt>
      <trkpt lat="44.18743" lon="4.70294">
        <ele>50</ele>
        <time>2019-10-18T20:28:11Z</time>
      </trkpt>
      <trkpt lat="44.18756" lon="4.70278">
        <ele>53</ele>
        <time>2019-10-18T20:28:19Z</time>
      </trkpt>
      <trkpt lat="44.18784" lon="4.70303">
        <ele>49</ele>
        <time>2019-10-18T20:28:36Z</time>
      </trkpt>
      <trkpt lat="44.18841" lon="4.70305">
        <ele>49</ele>
        <time>2019-10-18T20:29:04Z</time>
      </trkpt>
      <trkpt lat="44.18873" lon="4.70319">
        <ele>47</ele>
        <time>2019-10-18T20:29:21Z</time>
      </trkpt>
      <trkpt lat="44.18922" lon="4.70314">
        <ele>49</ele>
        <time>2019-10-18T20:29:46Z</time>
      </trkpt>
      <trkpt lat="44.1898" lon="4.70325">
        <ele>46</ele>
        <time>2019-10-18T20:30:15Z</time>
      </trkpt>
      <trkpt lat="44.19008" lon="4.7032">
        <ele>47</ele>
        <time>2019-10-18T20:30:29Z</time>
      </trkpt>
      <trkpt lat="44.19017" lon="4.70296">
        <ele>50</ele>
        <time>2019-10-18T20:30:39Z</time>
      </trkpt>
      <trkpt lat="44.19023" lon="4.70255">
        <ele>55</ele>
        <time>2019-10-18T20:30:54Z</time>
      </trkpt>
      <trkpt lat="44.1904" lon="4.70249">
        <ele>53</ele>
        <time>2019-10-18T20:31:03Z</time>
      </trkpt>
      <trkpt lat="44.19054" lon="4.70268">
        <ele>50</ele>
        <time>2019-10-18T20:31:13Z</time>
      </trkpt>
      <trkpt lat="44.19058" lon="4.7029">
        <ele>47</ele>
        <time>2019-10-18T20:31:21Z</time>
      </trkpt>
    </trkseg>
  </trk>
</gpx>